LPPR/OPO METAR and TAF weather

Enter ICAO airport designator
Station Type Date Time Source
LPPR METAR 2019/12/07 17:30 UTC NOAA

LPPR 071730Z 00000KT 5000 BR FEW025 11/10 Q1025


Station Type Date Time Source
LPPR Decoded METAR 2019/12/07 17:30 UTC NOAA

Porto / Pedras Rubras, Portugal (LPPR) 41-14N 008-41W 77M
Dec 07, 2019 - 12:30 PM EST / 2019.12.07 1730 UTC
Wind: Calm:0
Visibility: 3 mile(s):0
Sky conditions: mostly clear
Weather: mist
Temperature: 51 F (11 C)
Dew Point: 50 F (10 C)
Relative Humidity: 93%
Pressure (altimeter): 30.27 in. Hg (1025 hPa)
ob: LPPR 071730Z 00000KT 5000 BR FEW025 11/10 Q1025
cycle: 17

Station Type Date Time Source
LPPR TAF 2019/12/07 18:18 UTC NOAA

TAF LPPR 071700Z 0718/0818 22007KT 9999 FEW015
BECMG 0718/0721 16010KT 6000 -RA SCT004 BKN010
TEMPO 0721/0818 3000 DZRA BR SCT002 BKN004 PROB40 0800/0818 1200 DZRA BR BKN002

Example: see airport list